Time;durP1;ratioP1;P1;durP2;ratioP2;P2;SDS_P1;SDS_P2;PMS_P1;PMS_P2;Temp;Humidity;BMP_temperature;BMP_pressure;BME280_temperature;BME280_humidity;BME280_pressure;Samples;Min_cycle;Max_cycle;Signal;HPM_P1;HPM_P2
2024/03/09 00:00:50;;;;;;;;;;;16.50;63.90;;;;;;5092678;28;19912;-72
2024/03/09 00:03:15;;;;;;;;;;;16.50;63.00;;;;;;5092451;28;19920;-72
2024/03/09 00:05:41;;;;;;;;;;;16.50;63.80;;;;;;5092588;28;19920;-72
2024/03/09 00:08:08;;;;;;;;;;;16.50;64.00;;;;;;5092498;28;19909;-72
2024/03/09 00:10:34;;;;;;;;;;;16.50;64.20;;;;;;5091862;28;20007;-72
2024/03/09 00:13:00;;;;;;;;;;;16.50;64.30;;;;;;5093141;28;20358;-72
2024/03/09 00:15:26;;;;;;;;;;;16.40;64.30;;;;;;5092564;28;19908;-72
2024/03/09 00:17:52;;;;;;;;;;;16.50;64.40;;;;;;5092425;28;19915;-72
2024/03/09 00:20:22;;;;;;;;;;;16.50;64.30;;;;;;5092295;28;20301;-73
2024/03/09 00:22:49;;;;;;;;;;;16.60;64.20;;;;;;5099276;28;19919;-72
2024/03/09 00:25:15;;;;;;;;;;;16.50;63.90;;;;;;5092304;28;20048;-72
2024/03/09 00:27:40;;;;;;;;;;;16.50;64.20;;;;;;5092634;28;19935;-73
2024/03/09 00:30:13;;;;;;;;;;;16.50;63.90;;;;;;5092310;28;19908;-73
2024/03/09 00:32:38;;;;;;;;;;;16.50;62.70;;;;;;5099041;28;19919;-72
2024/03/09 00:35:07;;;;;;;;;;;16.30;63.90;;;;;;5092441;28;19915;-72
2024/03/09 00:37:33;;;;;;;;;;;16.40;63.50;;;;;;5092087;28;19908;-73
2024/03/09 00:39:59;;;;;;;;;;;16.40;64.30;;;;;;5092377;28;20266;-73
2024/03/09 00:42:25;;;;;;;;;;;16.50;64.00;;;;;;5092436;28;19939;-72
2024/03/09 00:44:51;;;;;;;;;;;16.40;64.00;;;;;;5091998;28;19954;-73
2024/03/09 00:47:17;;;;;;;;;;;16.40;64.00;;;;;;5091930;28;19955;-72
2024/03/09 00:49:43;;;;;;;;;;;16.40;64.00;;;;;;5092101;28;19944;-72
2024/03/09 00:52:12;;;;;;;;;;;16.40;64.30;;;;;;5092058;28;20007;-72
2024/03/09 00:54:38;;;;;;;;;;;16.40;59.40;;;;;;5091911;28;19912;-72
2024/03/09 00:57:04;;;;;;;;;;;16.40;64.30;;;;;;5092147;28;19908;-72
2024/03/09 00:59:31;;;;;;;;;;;16.40;63.70;;;;;;5092460;28;19908;-69
2024/03/09 01:01:57;;;;;;;;;;;16.40;63.80;;;;;;5091747;28;19908;-69
2024/03/09 01:04:27;;;;;;;;;;;16.40;64.60;;;;;;5092024;28;19920;-69
2024/03/09 01:06:54;;;;;;;;;;;16.30;59.60;;;;;;5091660;28;19927;-69
2024/03/09 01:09:20;;;;;;;;;;;16.30;64.50;;;;;;5092036;28;20429;-69
2024/03/09 01:11:48;;;;;;;;;;;16.30;64.20;;;;;;5091834;28;19908;-69
2024/03/09 01:14:15;;;;;;;;;;;16.40;64.20;;;;;;5091966;28;19908;-69
2024/03/09 01:16:40;;;;;;;;;;;16.30;64.30;;;;;;5091679;28;19908;-69
2024/03/09 01:19:06;;;;;;;;;;;16.30;64.10;;;;;;5091989;28;20014;-69
2024/03/09 01:21:33;;;;;;;;;;;16.40;64.40;;;;;;5094531;28;19909;-69
2024/03/09 01:24:04;;;;;;;;;;;16.30;63.80;;;;;;5096074;28;19912;-69
2024/03/09 01:26:30;;;;;;;;;;;16.30;64.10;;;;;;5096550;28;19961;-69
2024/03/09 01:28:56;;;;;;;;;;;16.30;64.20;;;;;;5095984;28;19908;-69
2024/03/09 01:31:27;;;;;;;;;;;16.30;64.00;;;;;;5095763;28;20250;-69
2024/03/09 01:33:55;;;;;;;;;;;16.20;64.00;;;;;;5095952;28;19908;-69
2024/03/09 01:36:23;;;;;;;;;;;16.20;59.40;;;;;;5095626;28;19908;-69
2024/03/09 01:38:49;;;;;;;;;;;16.50;64.60;;;;;;5095654;28;19915;-69
2024/03/09 01:41:14;;;;;;;;;;;16.40;64.30;;;;;;5095646;28;19908;-69
2024/03/09 01:43:40;;;;;;;;;;;16.30;63.80;;;;;;5095491;28;19916;-69
2024/03/09 01:46:06;;;;;;;;;;;16.20;64.40;;;;;;5095404;28;20293;-69
2024/03/09 01:48:32;;;;;;;;;;;16.30;64.40;;;;;;5095399;28;19908;-69
2024/03/09 01:50:58;;;;;;;;;;;16.20;64.30;;;;;;5095386;28;19918;-69
2024/03/09 01:53:24;;;;;;;;;;;16.30;64.70;;;;;;5095162;28;19913;-69
2024/03/09 01:55:50;;;;;;;;;;;16.20;64.60;;;;;;5095733;28;19947;-69
2024/03/09 01:58:19;;;;;;;;;;;16.20;64.60;;;;;;5095240;28;20005;-69
2024/03/09 02:00:54;;;;;;;;;;;16.20;64.20;;;;;;5095124;28;19908;-69
2024/03/09 02:03:19;;;;;;;;;;;16.10;64.10;;;;;;5096284;28;20075;-69
2024/03/09 02:05:45;;;;;;;;;;;16.20;64.50;;;;;;5094956;28;19916;-69
2024/03/09 02:08:11;;;;;;;;;;;16.20;64.60;;;;;;5095049;28;19915;-69
2024/03/09 02:10:38;;;;;;;;;;;16.20;64.50;;;;;;5094907;28;19916;-69
2024/03/09 02:13:04;;;;;;;;;;;16.10;64.50;;;;;;5094854;28;19922;-69
2024/03/09 02:15:33;;;;;;;;;;;16.10;64.60;;;;;;5094840;28;19912;-69
2024/03/09 02:17:59;;;;;;;;;;;16.10;60.80;;;;;;5094672;28;20299;-69
2024/03/09 02:20:30;;;;;;;;;;;16.10;64.50;;;;;;5094604;28;19908;-69
2024/03/09 02:22:56;;;;;;;;;;;16.10;64.80;;;;;;5094706;28;20003;-69
2024/03/09 02:25:22;;;;;;;;;;;16.00;64.80;;;;;;5095149;28;19919;-69
2024/03/09 02:27:47;;;;;;;;;;;16.10;64.80;;;;;;5094558;28;19917;-69
2024/03/09 02:30:13;;;;;;;;;;;16.10;64.50;;;;;;5094686;28;19937;-69
2024/03/09 02:32:39;;;;;;;;;;;16.10;64.60;;;;;;5093553;28;19933;-69
2024/03/09 02:35:05;;;;;;;;;;;16.10;64.70;;;;;;5094493;28;19923;-69
2024/03/09 02:37:31;;;;;;;;;;;16.00;63.60;;;;;;5094551;28;19908;-69
2024/03/09 02:39:56;;;;;;;;;;;16.10;64.80;;;;;;5094302;28;19915;-69
2024/03/09 02:42:22;;;;;;;;;;;16.10;65.00;;;;;;5094327;28;19915;-69
2024/03/09 02:44:48;;;;;;;;;;;16.00;64.50;;;;;;5094253;28;19920;-69
2024/03/09 02:47:14;;;;;;;;;;;16.10;64.90;;;;;;5094094;28;19916;-69
2024/03/09 02:49:39;;;;;;;;;;;16.10;64.80;;;;;;5094112;28;19915;-69
2024/03/09 02:52:05;;;;;;;;;;;16.10;64.70;;;;;;5094525;28;19908;-69
2024/03/09 02:54:30;;;;;;;;;;;16.00;64.70;;;;;;5094066;28;19909;-69
2024/03/09 02:56:57;;;;;;;;;;;16.00;64.70;;;;;;5093992;28;19915;-69
2024/03/09 02:59:23;;;;;;;;;;;16.10;64.70;;;;;;5093923;28;19995;-69
2024/03/09 03:01:49;;;;;;;;;;;16.10;64.70;;;;;;5093780;28;20022;-69
2024/03/09 03:04:15;;;;;;;;;;;16.10;64.70;;;;;;5072299;28;19932;-69
2024/03/09 03:06:40;;;;;;;;;;;16.30;64.80;;;;;;5073591;28;20330;-69
2024/03/09 03:09:11;;;;;;;;;;;16.00;64.90;;;;;;5073563;28;19954;-69
2024/03/09 03:11:37;;;;;;;;;;;16.10;65.20;;;;;;5080376;28;20085;-69
2024/03/09 03:14:03;;;;;;;;;;;16.10;65.00;;;;;;5073410;28;20416;-69
2024/03/09 03:16:29;;;;;;;;;;;16.10;64.90;;;;;;5073518;28;19909;-69
2024/03/09 03:18:59;;;;;;;;;;;16.10;64.80;;;;;;5073375;28;19915;-69
2024/03/09 03:21:25;;;;;;;;;;;16.10;60.00;;;;;;5073857;28;19978;-69
2024/03/09 03:23:51;;;;;;;;;;;16.00;65.20;;;;;;5073265;28;20007;-69
2024/03/09 03:26:17;;;;;;;;;;;16.00;64.80;;;;;;5073080;28;20032;-69
2024/03/09 03:28:47;;;;;;;;;;;16.10;65.20;;;;;;5073145;28;19915;-69
2024/03/09 03:31:13;;;;;;;;;;;16.00;60.70;;;;;;5073172;28;19972;-69
2024/03/09 03:33:39;;;;;;;;;;;16.00;64.90;;;;;;5073107;28;19919;-69
2024/03/09 03:36:12;;;;;;;;;;;16.00;65.10;;;;;;5072965;28;20325;-69
2024/03/09 03:38:38;;;;;;;;;;;16.10;60.50;;;;;;5072879;28;19912;-69
2024/03/09 03:41:06;;;;;;;;;;;16.00;64.50;;;;;;5072943;28;19962;-69
2024/03/09 03:43:34;;;;;;;;;;;15.90;65.20;;;;;;5072724;28;19977;-69
2024/03/09 03:46:00;;;;;;;;;;;16.00;65.10;;;;;;5072869;28;19917;-69
2024/03/09 03:48:26;;;;;;;;;;;15.90;65.50;;;;;;5072732;28;19915;-69
2024/03/09 03:50:53;;;;;;;;;;;16.00;65.00;;;;;;5072554;28;21464;-69
2024/03/09 03:53:19;;;;;;;;;;;16.20;65.00;;;;;;5072687;28;20026;-69
2024/03/09 03:55:45;;;;;;;;;;;16.00;65.20;;;;;;5072731;28;19908;-69
2024/03/09 03:58:12;;;;;;;;;;;15.90;65.00;;;;;;5072713;28;19917;-69
2024/03/09 04:00:37;;;;;;;;;;;16.00;64.90;;;;;;5072818;28;19908;-69
2024/03/09 04:03:03;;;;;;;;;;;15.90;63.90;;;;;;5082584;28;20330;-69
2024/03/09 04:05:29;;;;;;;;;;;16.10;65.00;;;;;;5092993;28;19912;-69
2024/03/09 04:07:55;;;;;;;;;;;16.10;65.20;;;;;;5092839;28;19912;-69
2024/03/09 04:10:21;;;;;;;;;;;16.00;65.40;;;;;;5092740;28;19915;-69
2024/03/09 04:12:47;;;;;;;;;;;15.00;64.70;;;;;;5092658;28;19975;-69
2024/03/09 04:15:13;;;;;;;;;;;16.00;64.90;;;;;;5092606;28;20001;-69
2024/03/09 04:17:39;;;;;;;;;;;15.90;65.70;;;;;;5074975;28;19908;-69
2024/03/09 04:20:05;;;;;;;;;;;15.90;65.50;;;;;;5092538;28;20091;-69
2024/03/09 04:22:32;;;;;;;;;;;15.90;63.80;;;;;;5092474;28;19951;-69
2024/03/09 04:25:01;;;;;;;;;;;15.90;65.40;;;;;;5092416;28;19965;-69
2024/03/09 04:27:28;;;;;;;;;;;15.90;65.30;;;;;;5092263;28;19916;-69
2024/03/09 04:29:53;;;;;;;;;;;15.90;64.60;;;;;;5092447;28;19908;-69
2024/03/09 04:32:19;;;;;;;;;;;15.80;65.20;;;;;;5092311;28;20006;-69
2024/03/09 04:34:46;;;;;;;;;;;15.90;65.40;;;;;;5092345;28;19930;-69
2024/03/09 04:37:12;;;;;;;;;;;15.80;65.10;;;;;;5092560;28;19914;-69
2024/03/09 04:39:43;;;;;;;;;;;15.90;65.40;;;;;;5092254;28;20023;-69
2024/03/09 04:42:09;;;;;;;;;;;15.80;65.30;;;;;;5098966;28;19912;-69
2024/03/09 04:44:36;;;;;;;;;;;15.70;65.40;;;;;;5091993;28;19919;-69
2024/03/09 04:47:03;;;;;;;;;;;15.80;65.50;;;;;;5092408;28;19963;-69
2024/03/09 04:49:28;;;;;;;;;;;15.80;65.40;;;;;;5092081;28;19908;-69
2024/03/09 04:51:56;;;;;;;;;;;15.90;65.30;;;;;;5092079;28;20282;-69
2024/03/09 04:54:22;;;;;;;;;;;15.80;65.40;;;;;;5091907;28;20023;-69
2024/03/09 04:56:48;;;;;;;;;;;15.80;65.40;;;;;;5091784;28;20386;-69
2024/03/09 04:59:16;;;;;;;;;;;15.60;64.50;;;;;;5091979;28;19962;-69
2024/03/09 05:01:45;;;;;;;;;;;15.70;65.00;;;;;;5091907;28;19908;-69
2024/03/09 05:04:11;;;;;;;;;;;15.80;65.50;;;;;;5091875;28;19927;-69
2024/03/09 05:06:39;;;;;;;;;;;15.80;65.40;;;;;;5091859;28;20359;-69
2024/03/09 05:09:06;;;;;;;;;;;15.70;65.40;;;;;;5092051;28;19916;-69
2024/03/09 05:11:32;;;;;;;;;;;15.80;65.60;;;;;;5091972;28;19908;-69
2024/03/09 05:13:57;;;;;;;;;;;15.70;65.20;;;;;;5091927;28;19919;-69
2024/03/09 05:16:23;;;;;;;;;;;15.70;65.50;;;;;;5092338;28;20246;-69
2024/03/09 05:18:49;;;;;;;;;;;15.70;65.40;;;;;;5091865;28;20480;-69
2024/03/09 05:21:16;;;;;;;;;;;15.70;65.30;;;;;;5092168;28;19912;-69
2024/03/09 05:23:42;;;;;;;;;;;15.70;65.10;;;;;;5091737;28;20382;-69
2024/03/09 05:26:10;;;;;;;;;;;15.70;65.30;;;;;;5092353;28;20096;-69
2024/03/09 05:28:39;;;;;;;;;;;15.70;65.20;;;;;;5091988;28;20266;-69
2024/03/09 05:31:21;;;;;;;;;;;16.30;66.20;;;;;;5091686;28;19908;-68
2024/03/09 05:33:47;;;;;;;;;;;15.70;61.00;;;;;;5091655;28;19909;-68
2024/03/09 05:36:12;;;;;;;;;;;15.70;65.80;;;;;;5091625;28;20423;-69
2024/03/09 05:38:38;;;;;;;;;;;15.60;66.00;;;;;;5091516;28;19955;-69
2024/03/09 05:41:06;;;;;;;;;;;15.60;65.90;;;;;;5091884;28;20372;-68
2024/03/09 05:43:32;;;;;;;;;;;15.60;65.80;;;;;;5091996;28;20427;-70
2024/03/09 05:45:58;;;;;;;;;;;15.70;66.20;;;;;;5091392;28;19919;-68
2024/03/09 05:48:23;;;;;;;;;;;15.70;65.80;;;;;;5091547;28;19961;-69
2024/03/09 05:50:49;;;;;;;;;;;15.70;66.20;;;;;;5091471;28;19912;-69
2024/03/09 05:53:14;;;;;;;;;;;15.70;66.40;;;;;;5091532;28;19915;-69
2024/03/09 05:55:42;;;;;;;;;;;15.60;66.20;;;;;;5091522;28;19915;-69
2024/03/09 05:58:09;;;;;;;;;;;15.80;66.00;;;;;;5091805;28;19908;-69
2024/03/09 06:00:36;;;;;;;;;;;15.70;66.10;;;;;;5091670;28;19932;-70
2024/03/09 06:03:03;;;;;;;;;;;15.70;66.00;;;;;;5091218;28;20295;-69
2024/03/09 06:05:30;;;;;;;;;;;15.80;66.00;;;;;;5091527;28;19914;-69
2024/03/09 06:07:56;;;;;;;;;;;15.70;66.40;;;;;;5094666;28;20087;-69
2024/03/09 06:10:24;;;;;;;;;;;15.70;66.30;;;;;;5095207;28;20343;-70
2024/03/09 06:12:51;;;;;;;;;;;15.70;65.80;;;;;;5095591;28;19915;-70
2024/03/09 06:15:19;;;;;;;;;;;15.70;66.40;;;;;;5095217;28;20276;-69
2024/03/09 06:17:47;;;;;;;;;;;15.80;66.80;;;;;;5094767;28;19928;-70
2024/03/09 06:20:14;;;;;;;;;;;15.70;66.30;;;;;;5094971;28;19919;-70
2024/03/09 06:22:43;;;;;;;;;;;15.70;66.30;;;;;;5094759;28;19962;-70
2024/03/09 06:25:22;;;;;;;;;;;15.70;66.10;;;;;;5094622;28;19998;-69
2024/03/09 06:27:48;;;;;;;;;;;15.70;61.70;;;;;;5094572;28;20331;-69
2024/03/09 06:30:17;;;;;;;;;;;15.80;66.00;;;;;;5094514;28;20380;-70
2024/03/09 06:32:46;;;;;;;;;;;15.70;65.00;;;;;;5094402;28;19909;-69
2024/03/09 06:35:25;;;;;;;;;;;15.90;62.10;;;;;;5094403;28;19933;-70
2024/03/09 06:38:09;;;;;;;;;;;15.80;61.60;;;;;;5094295;28;20057;-70
2024/03/09 06:40:36;;;;;;;;;;;15.70;65.70;;;;;;5094896;28;19915;-69
2024/03/09 06:43:03;;;;;;;;;;;15.70;66.30;;;;;;5094147;28;19908;-69
2024/03/09 06:45:29;;;;;;;;;;;15.70;66.20;;;;;;5094209;28;20003;-71
2024/03/09 06:47:54;;;;;;;;;;;15.70;66.20;;;;;;5094124;28;20397;-70
2024/03/09 06:50:20;;;;;;;;;;;15.80;66.30;;;;;;5094035;28;20053;-70
2024/03/09 06:52:46;;;;;;;;;;;15.70;66.10;;;;;;5094216;28;19930;-70
2024/03/09 06:55:15;;;;;;;;;;;15.70;66.00;;;;;;5093834;28;19951;-70
2024/03/09 06:57:41;;;;;;;;;;;15.70;61.60;;;;;;5093960;28;19908;-70
2024/03/09 07:00:13;;;;;;;;;;;15.70;66.10;;;;;;5094142;28;20018;-70
2024/03/09 07:02:40;;;;;;;;;;;16.70;65.70;;;;;;5093682;28;19955;-70
2024/03/09 07:05:09;;;;;;;;;;;15.80;66.30;;;;;;5093836;28;19961;-70
2024/03/09 07:07:35;;;;;;;;;;;15.70;64.40;;;;;;5093802;28;19942;-70
2024/03/09 07:10:01;;;;;;;;;;;15.70;66.40;;;;;;5094613;28;20407;-70
2024/03/09 07:12:26;;;;;;;;;;;15.80;66.60;;;;;;5093818;28;19908;-70
2024/03/09 07:14:52;;;;;;;;;;;15.70;66.10;;;;;;5093667;28;19908;-70
2024/03/09 07:17:18;;;;;;;;;;;15.80;66.10;;;;;;5093596;28;20015;-70
2024/03/09 07:19:45;;;;;;;;;;;15.80;66.10;;;;;;5093072;28;20263;-70
2024/03/09 07:22:13;;;;;;;;;;;15.80;66.20;;;;;;5093631;28;20262;-70
2024/03/09 07:24:41;;;;;;;;;;;15.80;65.70;;;;;;5093813;28;19912;-69
2024/03/09 07:27:08;;;;;;;;;;;15.70;66.20;;;;;;5093398;28;20393;-70
2024/03/09 07:29:34;;;;;;;;;;;15.70;65.80;;;;;;5093401;28;20006;-70
2024/03/09 07:32:00;;;;;;;;;;;15.80;65.90;;;;;;5093556;28;19935;-69
2024/03/09 07:34:27;;;;;;;;;;;15.70;65.70;;;;;;5093306;28;20378;-69
2024/03/09 07:36:55;;;;;;;;;;;15.70;65.90;;;;;;5094511;28;20038;-69
2024/03/09 07:39:23;;;;;;;;;;;15.70;66.00;;;;;;5094769;28;19909;-70
2024/03/09 07:41:48;;;;;;;;;;;15.70;65.80;;;;;;5093115;28;20363;-71
2024/03/09 07:44:14;;;;;;;;;;;15.80;66.20;;;;;;5093128;28;19915;-69
2024/03/09 07:46:39;;;;;;;;;;;15.80;65.90;;;;;;5093037;28;19916;-68
2024/03/09 07:49:05;;;;;;;;;;;15.80;66.00;;;;;;5092960;28;19908;-72
2024/03/09 07:51:31;;;;;;;;;;;15.70;66.20;;;;;;5092970;28;19944;-71
2024/03/09 07:53:58;;;;;;;;;;;15.70;66.00;;;;;;5092792;28;20010;-70
2024/03/09 07:56:24;;;;;;;;;;;15.70;65.90;;;;;;5093114;28;19908;-70
2024/03/09 07:58:50;;;;;;;;;;;15.70;66.20;;;;;;5092798;28;19916;-70
2024/03/09 08:01:18;;;;;;;;;;;15.80;66.00;;;;;;5092771;28;19927;-69
2024/03/09 08:03:45;;;;;;;;;;;15.70;65.60;;;;;;5092479;28;19924;-68
2024/03/09 08:06:12;;;;;;;;;;;15.70;66.10;;;;;;5074690;28;20369;-69
2024/03/09 08:08:37;;;;;;;;;;;15.70;61.50;;;;;;5092538;28;19962;-69
2024/03/09 08:11:03;;;;;;;;;;;15.70;65.80;;;;;;5092828;28;19943;-69
2024/03/09 08:13:30;;;;;;;;;;;15.80;65.80;;;;;;5092552;28;19969;-69
2024/03/09 08:15:56;;;;;;;;;;;15.70;66.20;;;;;;5092517;28;19908;-68
2024/03/09 08:18:22;;;;;;;;;;;15.60;66.30;;;;;;5092511;28;19945;-69
2024/03/09 08:20:49;;;;;;;;;;;15.70;66.80;;;;;;5092402;28;20314;-69
2024/03/09 08:23:14;;;;;;;;;;;15.60;67.00;;;;;;5092379;28;20401;-69
2024/03/09 08:25:41;;;;;;;;;;;16.20;67.00;;;;;;5092234;28;19908;-69
2024/03/09 08:28:08;;;;;;;;;;;15.70;67.20;;;;;;5092327;28;19912;-69
2024/03/09 08:30:33;;;;;;;;;;;15.70;67.00;;;;;;5091616;28;19952;-69
2024/03/09 08:32:59;;;;;;;;;;;15.80;67.00;;;;;;5092305;28;19992;-69
2024/03/09 08:35:27;;;;;;;;;;;15.70;66.20;;;;;;5092665;28;19914;-71
2024/03/09 08:37:52;;;;;;;;;;;15.70;67.30;;;;;;5092114;28;20363;-71
2024/03/09 08:40:19;;;;;;;;;;;15.70;67.20;;;;;;5092048;28;19912;-71
2024/03/09 08:42:48;;;;;;;;;;;15.80;67.40;;;;;;5092050;28;19995;-71
2024/03/09 08:45:14;;;;;;;;;;;16.10;67.80;;;;;;5091977;28;19912;-72
2024/03/09 08:47:41;;;;;;;;;;;15.90;67.20;;;;;;5092017;28;20339;-71
2024/03/09 08:50:10;;;;;;;;;;;15.90;67.70;;;;;;5091955;28;19908;-72
2024/03/09 08:52:47;;;;;;;;;;;16.10;66.70;;;;;;5092009;28;19908;-72
2024/03/09 08:55:14;;;;;;;;;;;15.90;67.40;;;;;;5092162;28;20343;-71
2024/03/09 08:57:40;;;;;;;;;;;16.00;67.30;;;;;;5092229;28;19912;-71
2024/03/09 09:00:06;;;;;;;;;;;15.90;68.20;;;;;;5091946;28;19948;-72
2024/03/09 09:02:32;;;;;;;;;;;16.00;67.30;;;;;;5092062;28;20020;-71
2024/03/09 09:04:58;;;;;;;;;;;16.00;67.70;;;;;;5091917;28;20292;-72
2024/03/09 09:07:23;;;;;;;;;;;16.10;67.50;;;;;;5091814;28;19916;-71
2024/03/09 09:09:50;;;;;;;;;;;16.10;67.90;;;;;;5091782;28;19944;-71
2024/03/09 09:12:17;;;;;;;;;;;16.10;67.60;;;;;;5091723;28;19908;-72
2024/03/09 09:14:43;;;;;;;;;;;16.10;67.50;;;;;;5092425;28;19915;-72
2024/03/09 09:17:09;;;;;;;;;;;15.70;67.80;;;;;;5092905;28;19910;-72
2024/03/09 09:19:38;;;;;;;;;;;16.20;67.90;;;;;;5091752;28;19915;-72
2024/03/09 09:22:07;;;;;;;;;;;16.30;63.20;;;;;;5091786;28;20015;-71
2024/03/09 09:24:33;;;;;;;;;;;16.30;67.50;;;;;;5091628;28;19919;-72
2024/03/09 09:26:58;;;;;;;;;;;16.30;67.80;;;;;;5091897;28;19920;-72
2024/03/09 09:29:28;;;;;;;;;;;16.30;67.40;;;;;;5091566;28;19995;-72
2024/03/09 09:31:57;;;;;;;;;;;15.00;62.70;;;;;;5092185;28;19909;-72
2024/03/09 09:34:23;;;;;;;;;;;16.40;63.20;;;;;;5091573;28;19973;-72
2024/03/09 09:36:52;;;;;;;;;;;16.40;67.70;;;;;;5091933;28;20010;-69
2024/03/09 09:39:20;;;;;;;;;;;16.70;68.10;;;;;;5091558;28;19916;-73
2024/03/09 09:41:46;;;;;;;;;;;17.30;68.10;;;;;;5092847;28;19908;-73
2024/03/09 09:44:12;;;;;;;;;;;16.50;68.00;;;;;;5095563;28;19912;-73
2024/03/09 09:46:38;;;;;;;;;;;16.60;67.80;;;;;;5095299;28;20299;-72
2024/03/09 09:49:04;;;;;;;;;;;16.50;67.30;;;;;;5095433;28;19919;-72
2024/03/09 09:51:31;;;;;;;;;;;16.70;67.80;;;;;;5095229;28;19908;-73
2024/03/09 09:53:58;;;;;;;;;;;16.70;67.80;;;;;;5095525;28;20002;-73
2024/03/09 09:56:24;;;;;;;;;;;16.80;67.80;;;;;;5095567;28;19908;-72
2024/03/09 09:58:50;;;;;;;;;;;16.80;67.30;;;;;;5095266;28;20056;-72
2024/03/09 10:01:17;;;;;;;;;;;16.90;67.40;;;;;;5095481;28;19940;-73
2024/03/09 10:03:44;;;;;;;;;;;16.90;67.00;;;;;;5095052;28;20072;-72
2024/03/09 10:06:22;;;;;;;;;;;16.90;62.60;;;;;;5094986;28;19916;-72
2024/03/09 10:08:49;;;;;;;;;;;16.90;58.00;;;;;;5095063;28;19912;-72
2024/03/09 10:11:15;;;;;;;;;;;16.90;62.40;;;;;;5095076;28;19914;-72
2024/03/09 10:13:40;;;;;;;;;;;17.30;62.80;;;;;;5094948;28;19908;-72
2024/03/09 10:16:06;;;;;;;;;;;17.00;62.40;;;;;;5095149;28;20262;-72
2024/03/09 10:18:32;;;;;;;;;;;17.10;62.30;;;;;;5094828;28;20003;-70
2024/03/09 10:20:58;;;;;;;;;;;17.00;62.50;;;;;;5094816;28;19920;-72
2024/03/09 10:23:23;;;;;;;;;;;17.00;62.60;;;;;;5094595;28;19931;-71
2024/03/09 10:25:49;;;;;;;;;;;17.00;62.90;;;;;;5094602;28;20400;-72
2024/03/09 10:28:16;;;;;;;;;;;16.80;61.00;;;;;;5076829;28;19908;-72
2024/03/09 10:30:42;;;;;;;;;;;17.20;62.10;;;;;;5094456;28;20321;-72
2024/03/09 10:33:11;;;;;;;;;;;17.60;62.20;;;;;;5094536;28;19912;-72
2024/03/09 10:35:40;;;;;;;;;;;17.40;61.80;;;;;;5094453;28;19999;-73
2024/03/09 10:38:07;;;;;;;;;;;17.40;62.00;;;;;;5094449;28;19908;-73
2024/03/09 10:40:34;;;;;;;;;;;17.70;61.80;;;;;;5094376;28;19935;-72
2024/03/09 10:43:01;;;;;;;;;;;17.60;61.20;;;;;;5094362;28;20323;-72
2024/03/09 10:45:30;;;;;;;;;;;17.70;61.00;;;;;;5094398;28;19908;-72
2024/03/09 10:47:56;;;;;;;;;;;17.70;61.40;;;;;;5094230;28;19977;-71
2024/03/09 10:50:23;;;;;;;;;;;17.70;61.50;;;;;;5094264;28;19908;-71
2024/03/09 10:53:18;;;;;;;;;;;17.60;61.60;;;;;;5093209;28;19908;-70
2024/03/09 10:55:57;;;;;;;;;;;17.70;57.20;;;;;;5094500;28;19908;-70
2024/03/09 10:58:26;;;;;;;;;;;17.70;57.60;;;;;;5094153;28;19915;-72
2024/03/09 11:00:52;;;;;;;;;;;17.60;62.00;;;;;;5094123;28;20501;-71
2024/03/09 11:03:23;;;;;;;;;;;17.50;61.30;;;;;;5093866;28;19928;-71
2024/03/09 11:05:49;;;;;;;;;;;17.60;62.20;;;;;;5100602;28;20328;-72
2024/03/09 11:08:15;;;;;;;;;;;17.60;62.40;;;;;;5093987;28;19908;-73
2024/03/09 11:10:43;;;;;;;;;;;17.50;62.30;;;;;;5093908;28;19915;-72
2024/03/09 11:13:09;;;;;;;;;;;17.50;62.30;;;;;;5093955;28;19908;-71
2024/03/09 11:15:36;;;;;;;;;;;17.70;62.60;;;;;;5093989;28;20331;-70
2024/03/09 11:18:06;;;;;;;;;;;17.50;62.60;;;;;;5093928;28;19991;-70
2024/03/09 11:20:31;;;;;;;;;;;17.60;61.80;;;;;;5093657;28;19914;-70
2024/03/09 11:22:58;;;;;;;;;;;17.60;61.90;;;;;;5093795;28;20125;-71
2024/03/09 11:25:42;;;;;;;;;;;17.60;62.50;;;;;;5093894;28;19934;-71
2024/03/09 11:28:07;;;;;;;;;;;17.90;57.70;;;;;;5093548;28;19924;-70
2024/03/09 11:30:33;;;;;;;;;;;18.00;61.80;;;;;;5093758;28;19908;-70
2024/03/09 11:33:01;;;;;;;;;;;18.10;61.30;;;;;;5093434;28;19912;-70
2024/03/09 11:35:33;;;;;;;;;;;18.20;61.50;;;;;;5093462;28;19947;-70
2024/03/09 11:38:09;;;;;;;;;;;18.30;61.40;;;;;;5093321;28;19955;-70
2024/03/09 11:40:36;;;;;;;;;;;18.40;61.60;;;;;;5093540;28;19919;-69
2024/03/09 11:43:04;;;;;;;;;;;18.40;61.90;;;;;;5093221;28;19961;-69
2024/03/09 11:45:30;;;;;;;;;;;18.40;62.10;;;;;;5093349;28;19916;-69
2024/03/09 11:47:56;;;;;;;;;;;18.40;61.90;;;;;;5093137;28;19935;-70
2024/03/09 11:50:22;;;;;;;;;;;18.50;62.00;;;;;;5093514;28;20007;-72
2024/03/09 11:52:47;;;;;;;;;;;18.50;62.00;;;;;;5093132;28;20396;-71
2024/03/09 11:55:13;;;;;;;;;;;18.50;61.70;;;;;;5074826;28;20386;-72
2024/03/09 11:57:38;;;;;;;;;;;18.40;62.00;;;;;;5093032;28;19908;-72
2024/03/09 12:00:06;;;;;;;;;;;18.50;62.10;;;;;;5092824;28;19908;-72
2024/03/09 12:02:34;;;;;;;;;;;19.10;61.10;;;;;;5092845;28;19920;-72
2024/03/09 12:05:01;;;;;;;;;;;18.80;61.70;;;;;;5092714;28;19961;-72
2024/03/09 12:07:27;;;;;;;;;;;18.80;60.90;;;;;;5092648;28;19916;-71
2024/03/09 12:09:55;;;;;;;;;;;18.80;61.20;;;;;;5092778;28;19916;-71
2024/03/09 12:12:20;;;;;;;;;;;18.80;61.70;;;;;;5092590;28;19908;-71
2024/03/09 12:14:46;;;;;;;;;;;18.80;61.50;;;;;;5092964;28;20308;-71
2024/03/09 12:17:12;;;;;;;;;;;19.00;61.30;;;;;;5092386;28;19951;-71
2024/03/09 12:19:42;;;;;;;;;;;19.00;61.10;;;;;;5093292;28;20018;-69
2024/03/09 12:22:09;;;;;;;;;;;19.10;56.50;;;;;;5092702;28;19918;-69
2024/03/09 12:24:35;;;;;;;;;;;19.40;60.50;;;;;;5092719;28;19908;-69
2024/03/09 12:27:01;;;;;;;;;;;19.50;60.40;;;;;;5092712;28;19916;-69
2024/03/09 12:29:27;;;;;;;;;;;19.50;59.90;;;;;;5092638;28;19908;-69
2024/03/09 12:31:56;;;;;;;;;;;19.40;60.00;;;;;;5092698;28;19919;-69
2024/03/09 12:34:21;;;;;;;;;;;19.40;60.80;;;;;;5092524;28;19909;-69
2024/03/09 12:36:51;;;;;;;;;;;19.30;60.50;;;;;;5092584;28;19915;-69
2024/03/09 12:39:17;;;;;;;;;;;19.30;56.30;;;;;;5092193;28;20393;-69
2024/03/09 12:41:50;;;;;;;;;;;19.30;61.00;;;;;;5092038;28;19912;-69
2024/03/09 12:44:16;;;;;;;;;;;19.40;56.60;;;;;;5092428;28;19952;-69
2024/03/09 12:46:43;;;;;;;;;;;19.40;60.40;;;;;;5092262;28;19951;-69
2024/03/09 12:49:12;;;;;;;;;;;19.20;60.10;;;;;;5092493;28;19916;-69
2024/03/09 12:51:48;;;;;;;;;;;19.40;58.70;;;;;;5092341;28;20320;-69
2024/03/09 12:54:14;;;;;;;;;;;19.40;55.80;;;;;;5091928;28;20374;-69
2024/03/09 12:56:41;;;;;;;;;;;19.30;60.60;;;;;;5092207;28;20111;-69
2024/03/09 12:59:11;;;;;;;;;;;19.20;61.20;;;;;;5092050;28;20382;-69
2024/03/09 13:01:37;;;;;;;;;;;19.10;60.80;;;;;;5091918;28;20277;-69
2024/03/09 13:04:11;;;;;;;;;;;19.20;61.10;;;;;;5091773;28;19920;-69
2024/03/09 13:06:41;;;;;;;;;;;19.20;60.90;;;;;;5091902;28;19969;-69
2024/03/09 13:09:17;;;;;;;;;;;19.20;61.50;;;;;;5098683;28;20293;-69
2024/03/09 13:11:43;;;;;;;;;;;19.30;55.90;;;;;;5091808;28;19915;-69
2024/03/09 13:14:08;;;;;;;;;;;19.20;60.80;;;;;;5091748;28;19912;-69
2024/03/09 13:16:34;;;;;;;;;;;19.20;60.60;;;;;;5092876;28;19915;-69
2024/03/09 13:19:06;;;;;;;;;;;19.20;60.80;;;;;;5096139;28;19915;-69
2024/03/09 13:21:31;;;;;;;;;;;19.50;60.00;;;;;;5095908;28;19908;-69
2024/03/09 13:23:58;;;;;;;;;;;19.30;60.60;;;;;;5096418;28;19915;-69
2024/03/09 13:26:24;;;;;;;;;;;19.30;60.60;;;;;;5095782;28;19912;-69
2024/03/09 13:28:50;;;;;;;;;;;19.40;60.90;;;;;;5095753;28;19991;-69
2024/03/09 13:31:16;;;;;;;;;;;19.30;60.90;;;;;;5095823;28;19955;-69
2024/03/09 13:33:42;;;;;;;;;;;19.30;61.90;;;;;;5095625;28;19979;-72
2024/03/09 13:36:12;;;;;;;;;;;19.40;60.40;;;;;;5077567;28;19954;-69
2024/03/09 13:38:41;;;;;;;;;;;19.20;56.60;;;;;;5095750;28;20282;-69
2024/03/09 13:41:09;;;;;;;;;;;19.30;61.00;;;;;;5095682;28;19915;-69
2024/03/09 13:43:42;;;;;;;;;;;19.30;60.40;;;;;;5095603;28;20211;-69
2024/03/09 13:46:07;;;;;;;;;;;19.40;56.30;;;;;;5095565;28;19908;-69
2024/03/09 13:48:38;;;;;;;;;;;19.40;60.90;;;;;;5095475;28;19909;-69
2024/03/09 13:51:04;;;;;;;;;;;19.30;60.70;;;;;;5102330;28;19908;-69
2024/03/09 13:53:33;;;;;;;;;;;19.30;60.90;;;;;;5095896;28;20003;-70
2024/03/09 13:55:59;;;;;;;;;;;19.20;60.90;;;;;;5095338;28;19908;-69
2024/03/09 13:58:24;;;;;;;;;;;19.20;60.50;;;;;;5077030;28;19961;-69
2024/03/09 14:00:50;;;;;;;;;;;19.20;60.90;;;;;;5095231;28;19912;-68
2024/03/09 14:03:15;;;;;;;;;;;19.10;60.40;;;;;;5095062;28;19927;-69
2024/03/09 14:05:42;;;;;;;;;;;19.10;60.50;;;;;;5095176;28;19909;-69
2024/03/09 14:08:08;;;;;;;;;;;19.20;61.20;;;;;;5095132;28;20370;-69
2024/03/09 14:10:34;;;;;;;;;;;19.20;61.30;;;;;;5095114;28;19908;-68
2024/03/09 14:13:09;;;;;;;;;;;19.20;61.50;;;;;;5095106;28;19927;-69
2024/03/09 14:15:36;;;;;;;;;;;17.30;56.00;;;;;;5095013;28;19951;-70